Coats, Kansas
Current Conditions -  °F | °C
As of 2:35 AM on Thursday 18 Dec 2014 (Local Time) from KPTT Reporting Station
Light Snow Light Snow  
Wind Chill: 25°   Ceiling: 500
Heat Index: 30°   Visibility: 5mi
Dew Point: 30°   Wind: 5mph
Humidity: 100%   Direction: 80°E
Pressure: 30.11"   Gusts: NA
Location:  37.51°N, 98.82°W
Report Text: KPTT 180835Z AUTO 08004KT 5SM -SN BKN005 OVC012 M01/M01 A3011 RMK AO2
Loading
Personal Weather Stations






























Interactive Weather Map New forecast layout! Learn more

10-Day Weather Forecast

Advertisements
Track Severe Weather on mobile